createdAt,value
2023-03-05T00:01:24.498Z,100024.11
2023-03-05T00:03:53.633Z,100022.97
2023-03-05T00:06:22.575Z,100017.67
2023-03-05T00:08:51.980Z,100017.20
2023-03-05T00:11:20.937Z,100016.85
2023-03-05T00:13:52.222Z,100013.77
2023-03-05T00:16:21.388Z,100013.04
2023-03-05T00:18:49.953Z,100006.50
2023-03-05T00:21:26.168Z,100007.61
2023-03-05T00:23:55.056Z,100007.89
2023-03-05T00:26:24.665Z,100008.45
2023-03-05T00:28:53.369Z,100007.27
2023-03-05T00:31:23.106Z,100008.31
2023-03-05T00:33:54.952Z,100006.36
2023-03-05T00:36:25.338Z,100005.50
2023-03-05T00:38:53.513Z,100005.05
2023-03-05T00:41:21.791Z,100000.87
2023-03-05T00:43:50.069Z,99998.82
2023-03-05T00:46:18.780Z,99996.23
2023-03-05T00:48:46.827Z,99995.02
2023-03-05T00:51:14.963Z,99993.45
2023-03-05T00:53:42.970Z,99995.77
2023-03-05T00:56:13.600Z,99993.06
2023-03-05T00:58:41.881Z,99997.30
2023-03-05T01:01:10.158Z,99994.30
2023-03-05T01:03:38.529Z,99998.40
2023-03-05T01:06:08.656Z,99999.45
2023-03-05T01:08:37.024Z,99999.52
2023-03-05T01:11:08.985Z,100000.52
2023-03-05T01:13:37.567Z,99997.75
2023-03-05T01:16:06.095Z,99995.80
2023-03-05T01:18:34.937Z,99988.71
2023-03-05T01:21:03.925Z,99991.70
2023-03-05T01:23:34.554Z,99990.95
2023-03-05T01:26:02.835Z,99993.13
2023-03-05T01:28:30.924Z,99998.20
2023-03-05T01:30:59.184Z,99996.52
2023-03-05T01:33:27.456Z,99997.86
2023-03-05T01:35:55.564Z,99999.70
2023-03-05T01:38:23.914Z,99997.57
2023-03-05T01:40:52.901Z,99998.45
2023-03-05T01:43:23.492Z,100002.26
2023-03-05T01:46:10.405Z,99999.50
2023-03-05T01:48:39.237Z,100004.75
2023-03-05T01:51:07.815Z,100007.27
2023-03-05T01:53:36.429Z,100008.69
2023-03-05T01:56:05.234Z,100013.42
2023-03-05T01:58:33.774Z,100014.15
2023-03-05T02:01:02.053Z,100014.09
2023-03-05T02:03:30.641Z,100010.11
2023-03-05T02:05:58.908Z,100010.58
2023-03-05T02:08:26.985Z,100014.66
2023-03-05T02:11:00.503Z,100026.55
2023-03-05T02:13:31.868Z,100027.30
2023-03-05T02:16:01.231Z,100028.05
2023-03-05T02:18:29.408Z,100026.48
2023-03-05T02:20:57.618Z,100028.35
2023-03-05T02:23:30.479Z,100029.22
2023-03-05T02:25:58.544Z,100031.76
2023-03-05T02:28:30.717Z,100035.45
2023-03-05T02:30:58.881Z,100036.69
2023-03-05T02:33:26.955Z,100040.80
2023-03-05T02:35:55.673Z,100041.79
2023-03-05T02:38:24.633Z,100046.17
2023-03-05T02:40:53.625Z,100048.84
2023-03-05T02:43:21.909Z,100051.91
2023-03-05T02:45:50.295Z,100049.50
2023-03-05T02:48:18.975Z,100045.10
2023-03-05T02:50:47.758Z,100043.08
2023-03-05T02:53:17.056Z,100044.56
2023-03-05T02:55:48.920Z,100043.98
2023-03-05T02:58:17.507Z,100044.27
2023-03-05T03:00:47.049Z,100044.20
2023-03-05T03:03:15.439Z,100046.14
2023-03-05T03:05:43.464Z,100041.48
2023-03-05T03:08:11.564Z,100039.25
2023-03-05T03:10:39.607Z,100039.52
2023-03-05T03:13:07.795Z,100039.52
2023-03-05T03:15:38.222Z,100040.70
2023-03-05T03:18:06.177Z,100038.13
2023-03-05T03:20:35.173Z,100037.90
2023-03-05T03:23:03.556Z,100031.61
2023-03-05T03:25:32.202Z,100037.14
2023-03-05T03:28:00.522Z,100029.98
2023-03-05T03:30:32.283Z,100033.19
2023-03-05T03:33:00.552Z,100031.23
2023-03-05T03:35:28.672Z,100031.91
2023-03-05T03:37:56.900Z,100036.33
2023-03-05T03:40:25.004Z,100032.77
2023-03-05T03:42:53.565Z,100032.98
2023-03-05T03:45:24.192Z,100034.71
2023-03-05T03:47:52.597Z,100033.42
2023-03-05T03:50:21.869Z,100034.27
2023-03-05T03:52:50.046Z,100032.58
2023-03-05T03:55:18.320Z,100032.16
2023-03-05T03:57:46.494Z,100035.31
2023-03-05T04:00:14.988Z,100037.84
2023-03-05T04:02:43.441Z,100039.09
2023-03-05T04:05:12.048Z,100039.92
2023-03-05T04:07:40.319Z,100041.54
2023-03-05T04:10:09.777Z,100038.02
2023-03-05T04:12:38.100Z,100039.75
2023-03-05T04:15:08.070Z,100039.00
2023-03-05T04:17:36.199Z,100036.26
2023-03-05T04:20:05.930Z,100039.83
2023-03-05T04:22:33.843Z,100048.42
2023-03-05T04:25:06.550Z,100050.95
2023-03-05T04:27:34.757Z,100057.52
2023-03-05T04:30:02.797Z,100059.83
2023-03-05T04:32:31.098Z,100064.14
2023-03-05T04:34:59.247Z,100064.92
2023-03-05T04:37:27.625Z,100068.64
2023-03-05T04:39:56.205Z,100067.17
2023-03-05T04:42:24.483Z,100072.12
2023-03-05T04:44:52.657Z,100070.41
2023-03-05T04:47:20.938Z,100072.36
2023-03-05T04:49:48.901Z,100071.86
2023-03-05T04:52:17.074Z,100073.02
2023-03-05T04:54:45.554Z,100075.20
2023-03-05T04:57:13.935Z,100078.14
2023-03-05T04:59:41.901Z,100075.89
2023-03-05T05:02:10.081Z,100082.71
2023-03-05T05:04:38.361Z,100086.33
2023-03-05T05:07:07.865Z,100094.19
2023-03-05T05:09:35.938Z,100103.51
2023-03-05T05:12:04.423Z,100111.14
2023-03-05T05:14:34.229Z,100119.48
2023-03-05T05:17:05.270Z,100121.73
2023-03-05T05:19:36.570Z,100126.87
2023-03-05T05:22:04.695Z,100131.84
2023-03-05T05:24:32.966Z,100139.50
2023-03-05T05:27:01.045Z,100145.88
2023-03-05T05:29:29.420Z,100149.26
2023-03-05T05:31:57.635Z,100151.27
2023-03-05T05:34:26.174Z,100152.88
2023-03-05T05:36:54.201Z,100150.28
2023-03-05T05:39:22.431Z,100147.08
2023-03-05T05:41:51.436Z,100148.86
2023-03-05T05:44:19.806Z,100154.80
2023-03-05T05:46:47.851Z,100155.83
2023-03-05T05:49:16.153Z,100160.02
2023-03-05T05:51:44.640Z,100161.05
2023-03-05T05:54:13.529Z,100169.44
2023-03-05T05:56:41.805Z,100177.52
2023-03-05T05:59:10.591Z,100182.44
2023-03-05T06:01:38.820Z,100187.48
2023-03-05T06:04:06.941Z,100176.64
2023-03-05T06:06:35.520Z,100179.63
2023-03-05T06:09:04.317Z,100177.41
2023-03-05T06:11:32.483Z,100176.81
2023-03-05T06:14:03.041Z,100178.14
2023-03-05T06:16:31.230Z,100179.77
2023-03-05T06:19:00.283Z,100184.27
2023-03-05T06:21:28.379Z,100194.29
2023-03-05T06:23:58.846Z,100195.74
2023-03-05T06:26:27.176Z,100196.30
2023-03-05T06:28:55.489Z,100199.52
2023-03-05T06:31:27.916Z,100197.45
2023-03-05T06:33:57.349Z,100200.02
2023-03-05T06:36:26.315Z,100198.42
2023-03-05T06:38:54.899Z,100199.10
2023-03-05T06:41:27.269Z,100201.84
2023-03-05T06:43:55.664Z,100199.75
2023-03-05T06:46:28.094Z,100204.42
2023-03-05T06:48:57.428Z,100205.67
2023-03-05T06:51:27.160Z,100210.00
2023-03-05T06:53:55.667Z,100211.25
2023-03-05T06:56:23.881Z,100213.17
2023-03-05T06:58:52.367Z,100215.12
2023-03-05T07:01:21.037Z,100214.95
2023-03-05T07:03:52.616Z,100215.21
2023-03-05T07:06:21.378Z,100219.55
2023-03-05T07:08:49.721Z,100220.55
2023-03-05T07:11:19.385Z,100215.17
2023-03-05T07:13:48.282Z,100211.81
2023-03-05T07:16:17.901Z,100212.29
2023-03-05T07:18:46.480Z,100217.73
2023-03-05T07:21:17.194Z,100213.08
2023-03-05T07:23:45.795Z,100213.92
2023-03-05T07:26:14.020Z,100215.44
2023-03-05T07:28:42.855Z,100215.41
2023-03-05T07:31:15.482Z,100221.91
2023-03-05T07:33:43.503Z,100217.36
2023-03-05T07:36:12.341Z,100212.60
2023-03-05T07:38:40.449Z,100216.98
2023-03-05T07:41:10.629Z,100214.09
2023-03-05T07:43:39.379Z,100216.48
2023-03-05T07:46:08.951Z,100212.86
2023-03-05T07:48:37.476Z,100213.41
2023-03-05T07:51:16.272Z,100210.57
2023-03-05T07:53:45.385Z,100210.81
2023-03-05T07:56:14.343Z,100211.77
2023-03-05T07:58:42.491Z,100210.92
2023-03-05T08:01:13.461Z,100205.61
2023-03-05T08:03:42.445Z,100207.64
2023-03-05T08:06:12.203Z,100206.03
2023-03-05T08:08:40.272Z,100203.58
2023-03-05T08:11:12.914Z,100200.05
2023-03-05T08:13:41.442Z,100203.21
2023-03-05T08:16:14.682Z,100200.73
2023-03-05T08:18:42.802Z,100199.33
2023-03-05T08:21:27.152Z,100191.67
2023-03-05T08:23:58.648Z,100192.27
2023-03-05T08:26:28.731Z,100191.27
2023-03-05T08:28:58.537Z,100184.31
2023-03-05T08:31:27.867Z,100184.62
2023-03-05T08:33:57.546Z,100187.11
2023-03-05T08:36:25.718Z,100182.21
2023-03-05T08:38:53.790Z,100185.05
2023-03-05T08:41:22.487Z,100182.42
2023-03-05T08:43:50.937Z,100181.27
2023-03-05T08:46:20.343Z,100179.34
2023-03-05T08:48:49.562Z,100177.58
2023-03-05T08:51:19.673Z,100178.56
2023-03-05T08:53:47.894Z,100180.33
2023-03-05T08:56:16.205Z,100170.65
2023-03-05T08:58:44.847Z,100168.57
2023-03-05T09:01:13.385Z,100164.14
2023-03-05T09:03:41.660Z,100165.73
2023-03-05T09:06:10.385Z,100157.86
2023-03-05T09:08:39.249Z,100153.77
2023-03-05T09:11:08.541Z,100153.79
2023-03-05T09:13:36.798Z,100150.01
2023-03-05T09:16:06.728Z,100153.75
2023-03-05T09:18:36.878Z,100148.45
2023-03-05T09:21:08.854Z,100144.68
2023-03-05T09:23:36.982Z,100142.14
2023-03-05T09:26:06.205Z,100143.89
2023-03-05T09:28:34.241Z,100139.96
2023-03-05T09:31:03.998Z,100135.98
2023-03-05T09:33:33.088Z,100138.15
2023-03-05T09:36:02.080Z,100133.59
2023-03-05T09:38:30.450Z,100132.52
2023-03-05T09:41:07.754Z,100132.05
2023-03-05T09:43:59.854Z,100127.58
2023-03-05T09:46:27.956Z,100125.08
2023-03-05T09:48:58.609Z,100123.68
2023-03-05T09:51:31.642Z,100126.27
2023-03-05T09:54:19.892Z,100117.09
2023-03-05T09:56:50.546Z,100115.36
2023-03-05T09:59:21.537Z,100113.25
2023-03-05T10:01:50.596Z,100104.40
2023-03-05T10:04:24.671Z,100099.34
2023-03-05T10:07:02.956Z,100092.90
2023-03-05T10:09:37.076Z,100087.08
2023-03-05T10:12:08.474Z,100080.71
2023-03-05T10:14:40.027Z,100076.00
2023-03-05T10:17:28.315Z,100074.08
2023-03-05T10:20:14.965Z,100071.44
2023-03-05T10:22:55.339Z,100066.60
2023-03-05T10:25:34.354Z,100058.87
2023-03-05T10:28:28.766Z,100054.23
2023-03-05T10:31:15.057Z,100052.35
2023-03-05T10:33:50.295Z,100048.17
2023-03-05T10:36:18.575Z,100039.99
2023-03-05T10:39:00.111Z,100027.17
2023-03-05T10:41:48.509Z,100024.13
2023-03-05T10:44:22.028Z,100016.59
2023-03-05T10:46:50.725Z,100012.11
2023-03-05T10:49:33.104Z,100009.58
2023-03-05T10:52:04.171Z,100006.48
2023-03-05T10:54:34.168Z,100005.36
2023-03-05T10:57:14.215Z,99996.53
2023-03-05T10:59:49.969Z,99991.31
2023-03-05T11:02:18.868Z,99988.74
2023-03-05T11:04:50.418Z,99987.05
2023-03-05T11:07:18.567Z,99986.73
2023-03-05T11:10:07.574Z,99977.97
2023-03-05T11:12:36.846Z,99970.64
2023-03-05T11:15:10.957Z,99971.27
2023-03-05T11:17:44.826Z,99968.38
2023-03-05T11:20:29.033Z,99966.58
2023-03-05T11:23:09.483Z,99960.90
2023-03-05T11:25:58.026Z,99952.61
2023-03-05T11:28:34.029Z,99948.08
2023-03-05T11:31:28.831Z,99948.35
2023-03-05T11:34:21.651Z,99946.59
2023-03-05T11:36:56.511Z,99942.74
2023-03-05T11:39:26.050Z,99935.09
2023-03-05T11:41:57.599Z,99928.81
2023-03-05T11:44:39.402Z,99925.67
2023-03-05T11:47:25.782Z,99919.17
2023-03-05T11:50:02.397Z,99916.08
2023-03-05T11:52:32.351Z,99915.73
2023-03-05T11:55:18.933Z,99910.41
2023-03-05T11:58:13.298Z,99910.43
2023-03-05T12:00:43.176Z,99905.72
2023-03-05T12:03:25.832Z,99902.23
2023-03-05T12:05:56.413Z,99900.86
2023-03-05T12:08:31.340Z,99901.27
2023-03-05T12:11:01.525Z,99897.98
2023-03-05T12:13:43.301Z,99899.25
2023-03-05T12:16:17.379Z,99895.92
2023-03-05T12:18:45.333Z,99889.90
2023-03-05T12:21:33.124Z,99884.05
2023-03-05T12:24:02.680Z,99879.40
2023-03-05T12:26:49.542Z,99872.53
2023-03-05T12:29:29.480Z,99871.05
2023-03-05T12:31:58.682Z,99873.03
2023-03-05T12:34:35.721Z,99868.85
2023-03-05T12:37:04.291Z,99862.29
2023-03-05T12:39:51.091Z,99860.48
2023-03-05T12:42:28.339Z,99858.33
2023-03-05T12:45:16.108Z,99858.33
2023-03-05T12:48:05.128Z,99851.71
2023-03-05T12:50:39.557Z,99854.16
2023-03-05T12:53:15.992Z,99852.42
2023-03-05T12:55:47.520Z,99856.40
2023-03-05T12:58:37.902Z,99854.05
2023-03-05T13:01:11.815Z,99854.14
2023-03-05T13:03:48.682Z,99853.16
2023-03-05T13:06:35.933Z,99848.98
2023-03-05T13:09:07.350Z,99848.80
2023-03-05T13:11:39.150Z,99846.40
2023-03-05T13:14:25.879Z,99843.48
2023-03-05T13:16:53.851Z,99845.97
2023-03-05T13:19:22.721Z,99841.21
2023-03-05T13:21:57.709Z,99841.04
2023-03-05T13:24:25.707Z,99840.46
2023-03-05T13:26:54.055Z,99839.45
2023-03-05T13:29:23.388Z,99834.39
2023-03-05T13:31:56.220Z,99833.92
2023-03-05T13:34:46.615Z,99831.37
2023-03-05T13:37:17.564Z,99825.27
2023-03-05T13:39:48.952Z,99824.80
2023-03-05T13:42:23.405Z,99826.77
2023-03-05T13:45:02.140Z,99826.60
2023-03-05T13:47:32.135Z,99825.63
2023-03-05T13:50:05.953Z,99824.86
2023-03-05T13:52:37.131Z,99824.74
2023-03-05T13:55:12.347Z,99822.88
2023-03-05T13:57:59.185Z,99819.71
2023-03-05T14:00:30.272Z,99822.48
2023-03-05T14:03:00.575Z,99818.83
2023-03-05T14:05:31.461Z,99813.35
2023-03-05T14:07:59.605Z,99813.78
2023-03-05T14:10:33.114Z,99813.27
2023-03-05T14:13:02.739Z,99812.48
2023-03-05T14:15:35.247Z,99811.20
2023-03-05T14:18:12.684Z,99810.64
2023-03-05T14:20:41.756Z,99807.79
2023-03-05T14:23:46.630Z,99799.98
2023-03-05T14:26:34.479Z,99800.91
2023-03-05T14:29:11.553Z,99800.77
2023-03-05T14:32:00.096Z,99794.17
2023-03-05T14:34:31.038Z,99795.13
2023-03-05T14:37:00.867Z,99798.98
2023-03-05T14:39:31.883Z,99793.36
2023-03-05T14:42:24.767Z,99793.31
2023-03-05T14:44:53.260Z,99788.08
2023-03-05T14:47:22.208Z,99791.59
2023-03-05T14:49:51.019Z,99792.46
2023-03-05T14:52:20.957Z,99793.90
2023-03-05T14:54:49.553Z,99794.05
2023-03-05T14:57:23.906Z,99797.57
2023-03-05T14:59:56.159Z,99795.11
2023-03-05T15:02:26.177Z,99793.80
2023-03-05T15:04:54.392Z,99796.41
2023-03-05T15:07:29.350Z,99798.98
2023-03-05T15:09:58.009Z,99800.40
2023-03-05T15:12:26.358Z,99800.77
2023-03-05T15:14:56.525Z,99800.50
2023-03-05T15:17:24.452Z,99801.96
2023-03-05T15:19:53.892Z,99799.11
2023-03-05T15:22:22.070Z,99798.48
2023-03-05T15:24:50.132Z,99795.26
2023-03-05T15:27:18.627Z,99796.11
2023-03-05T15:29:46.820Z,99791.13
2023-03-05T15:32:14.921Z,99794.71
2023-03-05T15:34:43.006Z,99792.80
2023-03-05T15:37:11.043Z,99791.52
2023-03-05T15:39:39.545Z,99793.56
2023-03-05T15:42:07.821Z,99791.64
2023-03-05T15:44:36.033Z,99788.77
2023-03-05T15:47:04.088Z,99791.05
2023-03-05T15:49:33.223Z,99794.11
2023-03-05T15:52:01.257Z,99794.42
2023-03-05T15:54:29.522Z,99800.02
2023-03-05T15:56:57.530Z,99797.54
2023-03-05T15:59:26.737Z,99797.44
2023-03-05T16:01:54.995Z,99796.77
2023-03-05T16:04:23.082Z,99797.14
2023-03-05T16:06:51.230Z,99792.23
2023-03-05T16:09:20.657Z,99797.11
2023-03-05T16:11:51.659Z,99794.14
2023-03-05T16:14:22.187Z,99795.08
2023-03-05T16:16:51.060Z,99798.36
2023-03-05T16:19:19.849Z,99795.50
2023-03-05T16:21:48.283Z,99797.43
2023-03-05T16:24:16.399Z,99795.39
2023-03-05T16:26:44.477Z,99792.18
2023-03-05T16:29:12.739Z,99793.89
2023-03-05T16:31:45.063Z,99794.05
2023-03-05T16:34:14.414Z,99792.77
2023-03-05T16:36:46.992Z,99798.42
2023-03-05T16:39:15.250Z,99802.31
2023-03-05T16:41:43.291Z,99802.06
2023-03-05T16:44:11.944Z,99804.91
2023-03-05T16:46:42.166Z,99806.39
2023-03-05T16:49:10.414Z,99809.74
2023-03-05T16:51:38.685Z,99810.73
2023-03-05T16:54:08.475Z,99808.26
2023-03-05T16:56:38.186Z,99813.05
2023-03-05T16:59:06.339Z,99815.02
2023-03-05T17:01:34.587Z,99812.81
2023-03-05T17:04:02.815Z,99814.30
2023-03-05T17:06:31.771Z,99815.38
2023-03-05T17:09:01.637Z,99810.79
2023-03-05T17:11:30.064Z,99811.51
2023-03-05T17:13:59.115Z,99807.39
2023-03-05T17:16:27.284Z,99807.65
2023-03-05T17:18:55.868Z,99806.52
2023-03-05T17:21:24.068Z,99805.73
2023-03-05T17:23:52.117Z,99804.36
2023-03-05T17:26:20.397Z,99807.33
2023-03-05T17:28:48.464Z,99808.13
2023-03-05T17:31:16.682Z,99805.75
2023-03-05T17:33:44.937Z,99808.64
2023-03-05T17:36:17.403Z,99809.54
2023-03-05T17:38:46.559Z,99804.54
2023-03-05T17:41:15.500Z,99799.48
2023-03-05T17:43:45.256Z,99800.13
2023-03-05T17:46:13.330Z,99799.48
2023-03-05T17:48:41.883Z,99797.23
2023-03-05T17:51:11.755Z,99795.23
2023-03-05T17:53:40.407Z,99793.39
2023-03-05T17:56:09.289Z,99794.24
2023-03-05T17:58:37.509Z,99795.38
2023-03-05T18:01:05.697Z,99796.68
2023-03-05T18:03:34.134Z,99798.27
2023-03-05T18:06:02.722Z,99801.73
2023-03-05T18:08:30.984Z,99802.21
2023-03-05T18:10:59.196Z,99802.21
2023-03-05T18:13:27.203Z,99801.52
2023-03-05T18:15:57.992Z,99802.12
2023-03-05T18:18:26.323Z,99800.80
2023-03-05T18:20:54.278Z,99798.41
2023-03-05T18:23:22.565Z,99797.55
2023-03-05T18:25:50.693Z,99798.15
2023-03-05T18:28:18.811Z,99795.38
2023-03-05T18:30:47.017Z,99795.28
2023-03-05T18:33:19.940Z,99796.31
2023-03-05T18:35:52.091Z,99796.70
2023-03-05T18:38:24.426Z,99799.23
2023-03-05T18:40:53.377Z,99799.41
2023-03-05T18:43:22.086Z,99801.79
2023-03-05T18:45:51.168Z,99805.37
2023-03-05T18:48:19.795Z,99804.00
2023-03-05T18:50:51.393Z,99808.91
2023-03-05T18:53:19.899Z,99804.96
2023-03-05T18:55:49.748Z,99805.52
2023-03-05T18:58:19.361Z,99805.71
2023-03-05T19:00:49.998Z,99806.55
2023-03-05T19:03:20.141Z,99805.96
2023-03-05T19:05:51.303Z,99808.70
2023-03-05T19:08:21.984Z,99805.83
2023-03-05T19:10:49.972Z,99808.08
2023-03-05T19:13:40.076Z,99803.98
2023-03-05T19:16:29.514Z,99804.86
2023-03-05T19:19:13.867Z,99802.52
2023-03-05T19:21:45.861Z,99802.56
2023-03-05T19:24:15.966Z,99810.08
2023-03-05T19:26:44.144Z,99810.72
2023-03-05T19:29:13.050Z,99819.47
2023-03-05T19:31:41.832Z,99824.65
2023-03-05T19:34:09.955Z,99823.14
2023-03-05T19:36:37.996Z,99823.37
2023-03-05T19:39:07.234Z,99826.63
2023-03-05T19:41:35.447Z,99824.46
2023-03-05T19:44:04.165Z,99825.02
2023-03-05T19:46:32.730Z,99826.67
2023-03-05T19:49:08.717Z,99826.54
2023-03-05T19:51:36.889Z,99825.89
2023-03-05T19:54:05.766Z,99827.54
2023-03-05T19:56:33.804Z,99827.52
2023-03-05T19:59:01.890Z,99826.48
2023-03-05T20:01:33.190Z,99827.33
2023-03-05T20:04:02.296Z,99835.40
2023-03-05T20:06:31.854Z,99834.88
2023-03-05T20:09:00.149Z,99835.36
2023-03-05T20:11:28.570Z,99839.33
2023-03-05T20:13:57.284Z,99841.67
2023-03-05T20:16:26.790Z,99841.57
2023-03-05T20:18:55.547Z,99844.66
2023-03-05T20:21:31.038Z,99846.75
2023-03-05T20:24:01.810Z,99845.62
2023-03-05T20:26:29.868Z,99846.95
2023-03-05T20:28:58.055Z,99848.59
2023-03-05T20:31:27.215Z,99849.59
2023-03-05T20:33:56.345Z,99851.46
2023-03-05T20:36:24.581Z,99857.27
2023-03-05T20:38:52.638Z,99857.48
2023-03-05T20:41:23.724Z,99858.71
2023-03-05T20:43:52.269Z,99855.79
2023-03-05T20:46:21.996Z,99853.89
2023-03-05T20:48:51.563Z,99854.77
2023-03-05T20:51:27.723Z,99855.45
2023-03-05T20:53:58.344Z,99852.08
2023-03-05T20:56:28.070Z,99844.64
2023-03-05T20:58:58.364Z,99847.60
2023-03-05T21:01:27.139Z,99849.64
2023-03-05T21:03:58.487Z,99846.50
2023-03-05T21:06:27.455Z,99848.95
2023-03-05T21:08:55.390Z,99851.11
2023-03-05T21:11:23.704Z,99850.73
2023-03-05T21:13:52.030Z,99846.66
2023-03-05T21:16:22.678Z,99846.24
2023-03-05T21:18:51.411Z,99845.54
2023-03-05T21:21:19.515Z,99845.76
2023-03-05T21:23:47.992Z,99846.04
2023-03-05T21:26:16.005Z,99843.73
2023-03-05T21:28:44.158Z,99842.95
2023-03-05T21:31:15.799Z,99840.46
2023-03-05T21:33:43.904Z,99839.18
2023-03-05T21:36:12.215Z,99841.59
2023-03-05T21:38:40.762Z,99843.66
2023-03-05T21:41:08.906Z,99839.35
2023-03-05T21:43:36.906Z,99838.05
2023-03-05T21:46:05.121Z,99837.80
2023-03-05T21:48:33.245Z,99840.09
2023-03-05T21:51:13.829Z,99836.20
2023-03-05T21:53:46.963Z,99834.05
2023-03-05T21:56:24.568Z,99838.02
2023-03-05T21:58:53.212Z,99842.51
2023-03-05T22:01:22.044Z,99837.39
2023-03-05T22:03:50.578Z,99839.75
2023-03-05T22:06:18.995Z,99840.69
2023-03-05T22:08:47.433Z,99840.90
2023-03-05T22:11:17.965Z,99833.54
2023-03-05T22:13:45.886Z,99838.81
2023-03-05T22:16:22.090Z,99844.33
2023-03-05T22:18:50.432Z,99844.44
2023-03-05T22:21:20.395Z,99845.73
2023-03-05T22:23:48.745Z,99848.89
2023-03-05T22:26:16.867Z,99850.37
2023-03-05T22:28:44.901Z,99853.23
2023-03-05T22:31:20.194Z,99848.17
2023-03-05T22:33:48.333Z,99847.55
2023-03-05T22:36:16.498Z,99850.98
2023-03-05T22:38:44.791Z,99851.23
2023-03-05T22:41:14.366Z,99849.83
2023-03-05T22:43:42.710Z,99851.31
2023-03-05T22:46:15.622Z,99849.16
2023-03-05T22:48:44.249Z,99849.50
2023-03-05T22:51:12.730Z,99852.23
2023-03-05T22:53:40.873Z,99855.73
2023-03-05T22:56:13.756Z,99853.64
2023-03-05T22:58:41.827Z,99852.50
2023-03-05T23:01:22.364Z,99857.18
2023-03-05T23:04:29.104Z,99864.02
2023-03-05T23:07:12.754Z,99859.41
2023-03-05T23:09:41.217Z,99864.00
2023-03-05T23:12:09.457Z,99863.16
2023-03-05T23:14:37.770Z,99862.31
2023-03-05T23:17:06.297Z,99867.77
2023-03-05T23:19:39.626Z,99868.08
2023-03-05T23:22:08.888Z,99868.02
2023-03-05T23:24:37.619Z,99869.71
2023-03-05T23:27:05.994Z,99865.41
2023-03-05T23:30:22.103Z,99863.30
2023-03-05T23:32:51.949Z,99866.69
2023-03-05T23:35:22.071Z,99873.38
2023-03-05T23:37:50.120Z,99875.33
2023-03-05T23:40:22.792Z,99880.59
2023-03-05T23:42:51.290Z,99874.84
2023-03-05T23:45:20.310Z,99875.94
2023-03-05T23:47:49.227Z,99875.30
2023-03-05T23:50:18.924Z,99873.81
2023-03-05T23:52:47.220Z,99874.38
2023-03-05T23:55:19.284Z,99869.15
2023-03-05T23:57:47.694Z,99875.89
